createdAt,value
2019-02-19T00:00:24.152Z,0.00
2019-02-19T00:02:28.318Z,0.00
2019-02-19T00:03:28.555Z,0.00
2019-02-19T00:05:32.723Z,0.00
2019-02-19T00:06:32.963Z,0.00
2019-02-19T00:08:37.120Z,0.00
2019-02-19T00:09:37.354Z,0.00
2019-02-19T00:11:41.525Z,0.00
2019-02-19T00:12:41.768Z,0.00
2019-02-19T00:14:45.918Z,0.00
2019-02-19T00:15:46.155Z,0.00
2019-02-19T00:17:39.254Z,0.00
2019-02-19T00:18:39.488Z,0.00
2019-02-19T00:20:43.661Z,0.00
2019-02-19T00:21:43.897Z,0.00
2019-02-19T00:23:48.045Z,0.00
2019-02-19T00:24:48.282Z,0.00
2019-02-19T00:26:52.447Z,0.00
2019-02-19T00:27:52.684Z,0.00
2019-02-19T00:29:56.829Z,0.00
2019-02-19T00:30:57.073Z,0.00
2019-02-19T00:33:01.233Z,0.00
2019-02-19T00:34:01.471Z,0.00
2019-02-19T00:36:05.635Z,0.00
2019-02-19T00:37:05.871Z,0.00
2019-02-19T00:39:10.018Z,0.00
2019-02-19T00:40:10.255Z,0.00
2019-02-19T00:42:14.422Z,0.00
2019-02-19T00:43:14.660Z,0.00
2019-02-19T00:45:18.806Z,0.00
2019-02-19T00:46:19.045Z,0.00
2019-02-19T00:48:23.214Z,0.00
2019-02-19T00:49:23.495Z,0.00
2019-02-19T00:51:27.624Z,0.00
2019-02-19T00:52:27.860Z,0.00
2019-02-19T00:54:32.012Z,0.00
2019-02-19T00:55:32.245Z,0.00
2019-02-19T00:57:25.340Z,0.00
2019-02-19T00:58:25.580Z,0.00
2019-02-19T01:00:29.734Z,0.00
2019-02-19T01:01:29.969Z,0.00
2019-02-19T01:03:34.135Z,0.00
2019-02-19T01:04:34.372Z,0.00
2019-02-19T01:06:38.549Z,0.00
2019-02-19T01:07:38.788Z,0.00
2019-02-19T01:09:42.935Z,0.00
2019-02-19T01:10:43.174Z,0.00
2019-02-19T01:12:47.339Z,0.00
2019-02-19T01:13:47.576Z,0.00
2019-02-19T01:15:51.727Z,0.00
2019-02-19T01:16:51.962Z,0.00
2019-02-19T01:18:56.128Z,0.00
2019-02-19T01:19:56.368Z,0.00
2019-02-19T01:22:00.548Z,0.00
2019-02-19T01:23:00.789Z,0.00
2019-02-19T01:25:04.950Z,0.00
2019-02-19T01:26:05.173Z,0.00
2019-02-19T01:27:58.270Z,0.00
2019-02-19T01:28:58.505Z,0.00
2019-02-19T01:31:02.658Z,0.00
2019-02-19T01:32:02.892Z,0.00
2019-02-19T01:34:07.061Z,0.00
2019-02-19T01:35:07.315Z,0.00
2019-02-19T01:37:11.447Z,0.00
2019-02-19T01:38:11.686Z,0.00
2019-02-19T01:40:15.865Z,0.00
2019-02-19T01:41:16.102Z,0.00
2019-02-19T01:43:20.270Z,0.00
2019-02-19T01:44:20.513Z,0.00
2019-02-19T01:46:24.656Z,0.00
2019-02-19T01:47:25.068Z,0.00
2019-02-19T01:49:29.064Z,0.00
2019-02-19T01:50:29.306Z,0.00
2019-02-19T01:52:33.455Z,0.00
2019-02-19T01:53:33.691Z,0.00
2019-02-19T01:55:37.862Z,0.00
2019-02-19T01:56:38.103Z,0.00
2019-02-19T01:58:42.268Z,0.00
2019-02-19T01:59:42.507Z,0.00
2019-02-19T02:01:46.654Z,0.00
2019-02-19T02:02:46.893Z,0.00
2019-02-19T02:04:51.065Z,0.00
2019-02-19T02:05:51.306Z,0.00
2019-02-19T02:07:44.384Z,0.00
2019-02-19T02:08:44.620Z,0.00
2019-02-19T02:10:48.791Z,0.00
2019-02-19T02:11:49.027Z,0.00
2019-02-19T02:13:53.197Z,0.00
2019-02-19T02:14:53.435Z,0.00
2019-02-19T02:16:57.586Z,0.00
2019-02-19T02:17:57.820Z,0.00
2019-02-19T02:20:01.990Z,0.00
2019-02-19T02:21:02.231Z,0.00
2019-02-19T02:23:06.370Z,0.00
2019-02-19T02:24:06.605Z,0.00
2019-02-19T02:26:10.773Z,0.00
2019-02-19T02:27:11.011Z,0.00
2019-02-19T02:29:15.177Z,0.00
2019-02-19T02:30:15.416Z,0.00
2019-02-19T02:32:19.564Z,0.00
2019-02-19T02:33:19.804Z,0.00
2019-02-19T02:35:23.976Z,0.00
2019-02-19T02:36:24.211Z,0.00
2019-02-19T02:38:28.363Z,0.00
2019-02-19T02:39:28.597Z,0.00
2019-02-19T02:41:32.770Z,0.00
2019-02-19T02:42:33.008Z,0.00
2019-02-19T02:44:37.172Z,0.00
2019-02-19T02:45:37.409Z,0.00
2019-02-19T02:47:30.490Z,0.00
2019-02-19T02:48:30.724Z,0.00
2019-02-19T02:50:34.890Z,0.00
2019-02-19T02:51:35.126Z,0.00
2019-02-19T02:53:39.288Z,0.00
2019-02-19T02:54:39.515Z,0.00
2019-02-19T02:56:43.683Z,0.00
2019-02-19T02:57:43.920Z,0.00
2019-02-19T02:59:48.098Z,0.00
2019-02-19T03:00:48.337Z,0.00
2019-02-19T03:02:52.484Z,0.00
2019-02-19T03:03:52.723Z,0.00
2019-02-19T03:05:56.897Z,0.00
2019-02-19T03:06:57.132Z,0.00
2019-02-19T03:09:01.283Z,0.00
2019-02-19T03:10:01.516Z,0.00
2019-02-19T03:12:05.686Z,0.00
2019-02-19T03:13:05.920Z,0.00
2019-02-19T03:15:10.091Z,0.00
2019-02-19T03:16:10.321Z,0.00
2019-02-19T03:18:03.395Z,0.00
2019-02-19T03:19:03.629Z,0.00
2019-02-19T03:21:07.797Z,0.00
2019-02-19T03:22:08.032Z,0.00
2019-02-19T03:24:12.179Z,0.00
2019-02-19T03:25:12.414Z,0.00
2019-02-19T03:27:16.582Z,0.00
2019-02-19T03:28:16.813Z,0.00
2019-02-19T03:30:21.001Z,0.00
2019-02-19T03:31:21.233Z,0.00
2019-02-19T03:33:25.377Z,0.00
2019-02-19T03:34:25.610Z,0.00
2019-02-19T03:36:29.773Z,0.00
2019-02-19T03:37:30.010Z,0.00
2019-02-19T03:39:34.156Z,0.00
2019-02-19T03:40:34.395Z,0.00
2019-02-19T03:42:38.562Z,0.00
2019-02-19T03:43:38.796Z,0.00
2019-02-19T03:45:42.941Z,0.00
2019-02-19T03:46:43.177Z,0.00
2019-02-19T03:48:47.344Z,0.00
2019-02-19T03:49:47.587Z,0.00
2019-02-19T03:51:51.753Z,0.00
2019-02-19T03:52:51.991Z,0.00
2019-02-19T03:54:56.136Z,0.00
2019-02-19T03:55:56.372Z,0.00
2019-02-19T03:57:49.469Z,0.00
2019-02-19T03:58:49.707Z,0.00
2019-02-19T04:00:53.854Z,0.00
2019-02-19T04:01:54.090Z,0.00
2019-02-19T04:03:58.257Z,0.00
2019-02-19T04:04:58.496Z,0.00
2019-02-19T04:07:02.668Z,0.00
2019-02-19T04:08:02.900Z,0.00
2019-02-19T04:10:07.045Z,0.00
2019-02-19T04:11:07.282Z,0.00
2019-02-19T04:13:11.452Z,0.00
2019-02-19T04:14:11.692Z,0.00
2019-02-19T04:16:21.305Z,0.00
2019-02-19T04:17:16.071Z,0.00
2019-02-19T04:19:20.237Z,0.00
2019-02-19T04:20:20.472Z,0.00
2019-02-19T04:22:24.641Z,0.00
2019-02-19T04:23:24.878Z,0.00
2019-02-19T04:25:29.018Z,0.00
2019-02-19T04:26:29.255Z,0.00
2019-02-19T04:28:33.420Z,0.00
2019-02-19T04:29:33.654Z,0.00
2019-02-19T04:31:37.796Z,0.00
2019-02-19T04:32:38.029Z,0.00
2019-02-19T04:34:42.199Z,0.00
2019-02-19T04:35:42.429Z,0.00
2019-02-19T04:37:35.504Z,0.00
2019-02-19T04:38:35.740Z,0.00
2019-02-19T04:40:39.902Z,0.00
2019-02-19T04:41:40.135Z,0.00
2019-02-19T04:43:44.297Z,0.00
2019-02-19T04:44:44.531Z,0.00
2019-02-19T04:46:48.676Z,0.00
2019-02-19T04:47:48.910Z,0.00
2019-02-19T04:49:53.078Z,0.00
2019-02-19T04:50:53.312Z,0.00
2019-02-19T04:52:57.458Z,0.00
2019-02-19T04:53:57.693Z,0.00
2019-02-19T04:56:01.860Z,0.00
2019-02-19T04:57:02.095Z,0.00
2019-02-19T04:59:06.259Z,0.00
2019-02-19T05:00:06.496Z,0.00
2019-02-19T05:02:10.635Z,0.00
2019-02-19T05:03:10.869Z,0.00
2019-02-19T05:05:15.052Z,0.00
2019-02-19T05:06:15.282Z,0.00
2019-02-19T05:08:08.370Z,0.00
2019-02-19T05:09:08.601Z,0.00
2019-02-19T05:11:12.762Z,0.00
2019-02-19T05:12:12.995Z,0.00
2019-02-19T05:14:17.134Z,0.00
2019-02-19T05:15:17.370Z,0.00
2019-02-19T05:17:21.532Z,0.00
2019-02-19T05:18:21.765Z,0.00
2019-02-19T05:20:25.927Z,0.00
2019-02-19T05:21:26.161Z,0.00
2019-02-19T05:23:30.303Z,0.00
2019-02-19T05:24:30.540Z,0.00
2019-02-19T05:26:34.704Z,0.00
2019-02-19T05:27:34.939Z,0.00
2019-02-19T05:29:39.078Z,0.00
2019-02-19T05:30:39.312Z,0.00
2019-02-19T05:32:43.513Z,0.00
2019-02-19T05:33:43.746Z,0.00
2019-02-19T05:35:47.909Z,0.00
2019-02-19T05:36:48.140Z,0.00
2019-02-19T05:38:52.284Z,0.00
2019-02-19T05:39:52.580Z,0.00
2019-02-19T05:41:56.676Z,0.00
2019-02-19T05:42:56.909Z,0.00
2019-02-19T05:45:01.061Z,0.00
2019-02-19T05:46:01.294Z,0.00
2019-02-19T05:47:54.384Z,0.00
2019-02-19T05:48:54.720Z,0.00
2019-02-19T05:50:58.886Z,0.00
2019-02-19T05:51:59.096Z,0.00
2019-02-19T05:54:03.256Z,0.00
2019-02-19T05:55:03.493Z,0.00
2019-02-19T05:57:07.654Z,0.00
2019-02-19T05:58:07.891Z,0.00
2019-02-19T06:00:12.037Z,0.00
2019-02-19T06:01:12.275Z,0.00
2019-02-19T06:03:16.439Z,0.00
2019-02-19T06:04:16.677Z,0.00
2019-02-19T06:06:20.817Z,0.00
2019-02-19T06:07:21.052Z,0.00
2019-02-19T06:09:25.217Z,0.00
2019-02-19T06:10:25.459Z,0.00
2019-02-19T06:12:29.620Z,0.00
2019-02-19T06:13:29.853Z,0.00
2019-02-19T06:15:34.027Z,5.63
2019-02-19T06:16:34.230Z,5.63
2019-02-19T06:18:38.394Z,5.63
2019-02-19T06:19:38.625Z,5.63
2019-02-19T06:21:42.767Z,5.63
2019-02-19T06:22:43.007Z,11.25
2019-02-19T06:24:47.165Z,11.25
2019-02-19T06:25:47.398Z,11.25
2019-02-19T06:27:40.488Z,11.25
2019-02-19T06:28:40.724Z,11.25
2019-02-19T06:30:44.865Z,16.88
2019-02-19T06:31:45.102Z,16.88
2019-02-19T06:33:49.268Z,16.88
2019-02-19T06:34:49.508Z,16.88
2019-02-19T06:36:53.652Z,16.88
2019-02-19T06:37:53.888Z,16.88
2019-02-19T06:39:58.052Z,16.88
2019-02-19T06:40:58.290Z,16.88
2019-02-19T06:43:02.455Z,22.50
2019-02-19T06:44:02.688Z,22.50
2019-02-19T06:46:06.834Z,22.50
2019-02-19T06:47:07.286Z,16.88
2019-02-19T06:49:11.236Z,16.88
2019-02-19T06:50:11.473Z,16.88
2019-02-19T06:52:15.614Z,16.88
2019-02-19T06:53:15.849Z,16.88
2019-02-19T06:55:20.015Z,16.88
2019-02-19T06:56:20.245Z,16.88
2019-02-19T06:58:24.415Z,16.88
2019-02-19T06:59:24.646Z,22.50
2019-02-19T07:01:28.788Z,22.50
2019-02-19T07:02:29.025Z,22.50
2019-02-19T07:04:33.188Z,22.50
2019-02-19T07:05:33.427Z,22.50
2019-02-19T07:07:26.494Z,22.50
2019-02-19T07:08:26.730Z,22.50
2019-02-19T07:10:30.890Z,28.13
2019-02-19T07:11:31.132Z,28.13
2019-02-19T07:13:35.291Z,33.75
2019-02-19T07:14:35.517Z,33.75
2019-02-19T07:16:39.685Z,39.38
2019-02-19T07:17:39.931Z,39.38
2019-02-19T07:19:44.086Z,39.38
2019-02-19T07:20:44.322Z,45.00
2019-02-19T07:22:48.490Z,50.63
2019-02-19T07:23:48.726Z,45.00
2019-02-19T07:25:52.891Z,50.63
2019-02-19T07:26:53.128Z,50.63
2019-02-19T07:28:57.269Z,50.63
2019-02-19T07:29:57.505Z,56.25
2019-02-19T07:32:01.671Z,61.88
2019-02-19T07:33:01.905Z,61.88
2019-02-19T07:35:06.057Z,61.88
2019-02-19T07:36:06.284Z,61.88
2019-02-19T07:37:59.391Z,67.50
2019-02-19T07:38:59.608Z,61.88
2019-02-19T07:41:03.769Z,56.25
2019-02-19T07:42:04.108Z,56.25
2019-02-19T07:44:08.249Z,56.25
2019-02-19T07:45:08.481Z,45.00
2019-02-19T07:47:12.645Z,33.75
2019-02-19T07:48:12.885Z,33.75
2019-02-19T07:50:17.044Z,28.13
2019-02-19T07:51:17.280Z,28.13
2019-02-19T07:53:21.420Z,22.50
2019-02-19T07:54:21.659Z,16.88
2019-02-19T07:56:25.820Z,16.88
2019-02-19T07:57:26.060Z,16.88
2019-02-19T07:59:30.196Z,16.88
2019-02-19T08:00:30.438Z,16.88
2019-02-19T08:02:34.596Z,22.50
2019-02-19T08:03:34.833Z,28.13
2019-02-19T08:05:39.007Z,28.13
2019-02-19T08:06:39.243Z,28.13
2019-02-19T08:08:43.385Z,22.50
2019-02-19T08:09:43.621Z,22.50
2019-02-19T08:11:47.780Z,28.13
2019-02-19T08:12:48.018Z,33.75
2019-02-19T08:14:52.160Z,45.00
2019-02-19T08:15:52.393Z,50.63
2019-02-19T08:17:45.496Z,67.50
2019-02-19T08:18:45.731Z,73.13
2019-02-19T08:20:49.874Z,84.38
2019-02-19T08:21:50.105Z,78.75
2019-02-19T08:23:54.266Z,84.38
2019-02-19T08:24:54.502Z,84.38
2019-02-19T08:26:58.665Z,61.88
2019-02-19T08:27:58.900Z,56.25
2019-02-19T08:30:03.067Z,56.25
2019-02-19T08:31:03.287Z,50.63
2019-02-19T08:33:07.452Z,50.63
2019-02-19T08:34:07.687Z,56.25
2019-02-19T08:36:11.834Z,67.50
2019-02-19T08:37:12.073Z,73.13
2019-02-19T08:39:16.235Z,90.00
2019-02-19T08:40:16.490Z,95.63
2019-02-19T08:42:20.648Z,101.25
2019-02-19T08:43:20.882Z,95.63
2019-02-19T08:45:25.029Z,90.00
2019-02-19T08:46:25.276Z,90.00
2019-02-19T08:48:29.430Z,84.38
2019-02-19T08:49:29.668Z,84.38
2019-02-19T08:51:33.818Z,95.63
2019-02-19T08:52:34.049Z,95.63
2019-02-19T08:54:38.213Z,106.88
2019-02-19T08:55:38.447Z,123.75
2019-02-19T08:57:31.546Z,140.63
2019-02-19T08:58:31.787Z,123.75
2019-02-19T09:00:35.928Z,123.75
2019-02-19T09:01:36.166Z,118.13
2019-02-19T09:03:40.327Z,106.88
2019-02-19T09:04:40.567Z,106.88
2019-02-19T09:06:44.717Z,84.38
2019-02-19T09:07:44.949Z,84.38
2019-02-19T09:09:49.115Z,84.38
2019-02-19T09:10:49.350Z,90.00
2019-02-19T09:12:53.511Z,90.00
2019-02-19T09:13:53.729Z,90.00
2019-02-19T09:15:57.896Z,95.63
2019-02-19T09:16:58.130Z,101.25
2019-02-19T09:19:02.295Z,101.25
2019-02-19T09:20:02.535Z,101.25
2019-02-19T09:22:06.679Z,95.63
2019-02-19T09:23:06.918Z,95.63
2019-02-19T09:25:11.088Z,90.00
2019-02-19T09:26:11.322Z,90.00
2019-02-19T09:28:04.397Z,90.00
2019-02-19T09:29:04.631Z,90.00
2019-02-19T09:31:08.801Z,90.00
2019-02-19T09:32:09.034Z,90.00
2019-02-19T09:34:13.201Z,101.25
2019-02-19T09:35:13.435Z,112.50
2019-02-19T09:37:17.581Z,123.75
2019-02-19T09:38:17.817Z,135.00
2019-02-19T09:40:21.980Z,146.25
2019-02-19T09:41:22.213Z,151.88
2019-02-19T09:43:35.140Z,163.13
2019-02-19T09:44:26.600Z,157.50
2019-02-19T09:46:30.761Z,135.00
2019-02-19T09:47:30.998Z,129.38
2019-02-19T09:49:35.162Z,140.63
2019-02-19T09:50:35.400Z,146.25
2019-02-19T09:52:39.544Z,163.13
2019-02-19T09:53:39.779Z,163.13
2019-02-19T09:55:43.967Z,191.25
2019-02-19T09:56:44.181Z,180.00
2019-02-19T09:58:48.329Z,185.63
2019-02-19T09:59:48.565Z,196.88
2019-02-19T10:01:52.732Z,213.75
2019-02-19T10:02:52.966Z,213.75
2019-02-19T10:04:57.133Z,208.13
2019-02-19T10:05:57.369Z,208.13
2019-02-19T10:07:50.443Z,208.13
2019-02-19T10:08:50.681Z,213.75
2019-02-19T10:10:54.850Z,230.63
2019-02-19T10:11:55.085Z,230.63
2019-02-19T10:13:59.241Z,230.63
2019-02-19T10:14:59.477Z,236.25
2019-02-19T10:17:03.647Z,241.88
2019-02-19T10:18:10.072Z,241.88
2019-02-19T10:20:08.060Z,241.88
2019-02-19T10:21:08.297Z,241.88
2019-02-19T10:23:12.470Z,236.25
2019-02-19T10:24:12.716Z,230.63
2019-02-19T10:26:16.872Z,236.25
2019-02-19T10:27:17.118Z,236.25
2019-02-19T10:29:21.255Z,253.13
2019-02-19T10:30:21.491Z,275.63
2019-02-19T10:32:25.664Z,315.00
2019-02-19T10:33:25.898Z,320.63
2019-02-19T10:35:30.068Z,331.88
2019-02-19T10:36:30.303Z,331.88
2019-02-19T10:38:34.455Z,281.25
2019-02-19T10:39:34.688Z,253.13
2019-02-19T10:41:38.857Z,230.63
2019-02-19T10:42:39.095Z,219.38
2019-02-19T10:44:43.243Z,213.75
2019-02-19T10:45:43.480Z,219.38
2019-02-19T10:47:36.576Z,241.88
2019-02-19T10:48:36.811Z,253.13
2019-02-19T10:50:40.996Z,247.50
2019-02-19T10:51:41.233Z,225.00
2019-02-19T10:53:45.378Z,163.13
2019-02-19T10:54:45.615Z,135.00
2019-02-19T10:56:49.779Z,112.50
2019-02-19T10:57:50.017Z,106.88
2019-02-19T10:59:54.161Z,84.38
2019-02-19T11:00:54.398Z,84.38
2019-02-19T11:02:58.575Z,78.75
2019-02-19T11:03:58.813Z,84.38
2019-02-19T11:06:03.035Z,95.63
2019-02-19T11:07:03.224Z,95.63
2019-02-19T11:09:07.365Z,101.25
2019-02-19T11:10:07.601Z,106.88
2019-02-19T11:12:11.773Z,129.38
2019-02-19T11:13:12.015Z,135.00
2019-02-19T11:15:17.476Z,135.00
2019-02-19T11:16:16.389Z,129.38
2019-02-19T11:18:28.133Z,101.25
2019-02-19T11:19:20.792Z,84.38
2019-02-19T11:21:24.948Z,90.00
2019-02-19T11:22:25.997Z,90.00
2019-02-19T11:24:29.346Z,78.75
2019-02-19T11:25:29.586Z,73.13
2019-02-19T11:27:22.685Z,67.50
2019-02-19T11:28:22.920Z,61.88
2019-02-19T11:30:27.069Z,61.88
2019-02-19T11:31:27.307Z,84.38
2019-02-19T11:33:31.479Z,247.50
2019-02-19T11:34:31.710Z,258.75
2019-02-19T11:36:35.861Z,275.63
2019-02-19T11:37:37.364Z,478.13
2019-02-19T11:39:40.270Z,281.25
2019-02-19T11:40:40.502Z,326.25
2019-02-19T11:42:44.684Z,270.00
2019-02-19T11:43:44.916Z,230.63
2019-02-19T11:45:49.062Z,253.13
2019-02-19T11:46:49.304Z,315.00
2019-02-19T11:48:53.471Z,270.00
2019-02-19T11:49:53.709Z,331.88
2019-02-19T11:51:57.856Z,343.13
2019-02-19T11:52:58.094Z,354.38
2019-02-19T11:55:02.263Z,489.38
2019-02-19T11:56:02.499Z,590.63
2019-02-19T11:57:55.615Z,961.88
2019-02-19T11:58:55.852Z,1856.25
2019-02-19T12:01:00.000Z,1490.63
2019-02-19T12:02:00.239Z,1164.38
2019-02-19T12:04:04.413Z,1215.00
2019-02-19T12:05:04.650Z,1164.38
2019-02-19T12:07:08.803Z,1485.00
2019-02-19T12:08:09.045Z,2649.38
2019-02-19T12:10:13.220Z,793.13
2019-02-19T12:11:13.463Z,787.50
2019-02-19T12:13:17.642Z,4314.38
2019-02-19T12:14:17.883Z,2199.38
2019-02-19T12:16:22.061Z,528.75
2019-02-19T12:17:22.306Z,489.38
2019-02-19T12:19:26.485Z,405.00
2019-02-19T12:20:26.727Z,405.00
2019-02-19T12:22:30.879Z,613.13
2019-02-19T12:23:31.122Z,641.25
2019-02-19T12:25:35.296Z,945.00
2019-02-19T12:26:35.542Z,708.75
2019-02-19T12:28:39.695Z,511.88
2019-02-19T12:29:39.936Z,506.25
2019-02-19T12:31:44.113Z,1411.88
2019-02-19T12:32:44.380Z,821.25
2019-02-19T12:34:48.529Z,1226.25
2019-02-19T12:35:48.772Z,3853.13
2019-02-19T12:37:41.853Z,1040.63
2019-02-19T12:38:42.095Z,933.75
2019-02-19T12:40:46.278Z,4235.63
2019-02-19T12:41:46.521Z,1243.13
2019-02-19T12:43:51.084Z,1096.88
2019-02-19T12:44:50.929Z,1226.25
2019-02-19T12:46:55.116Z,1001.25
2019-02-19T12:47:55.357Z,3538.13
2019-02-19T12:49:59.555Z,3015.00
2019-02-19T12:50:59.788Z,1417.50
2019-02-19T12:53:03.945Z,939.38
2019-02-19T12:54:04.189Z,2739.38
2019-02-19T12:56:08.377Z,3313.13
2019-02-19T12:57:08.612Z,3228.75
2019-02-19T12:59:12.770Z,793.13
2019-02-19T13:00:13.014Z,916.88
2019-02-19T13:02:17.197Z,3161.25
2019-02-19T13:03:17.436Z,3993.75
2019-02-19T13:05:21.625Z,1080.00
2019-02-19T13:06:21.869Z,1130.63
2019-02-19T13:08:26.034Z,2958.75
2019-02-19T13:09:26.279Z,1074.38
2019-02-19T13:11:30.462Z,3960.00
2019-02-19T13:12:30.711Z,1091.25
2019-02-19T13:14:34.872Z,1305.00
2019-02-19T13:15:35.114Z,4078.13
2019-02-19T13:17:28.229Z,3937.50
2019-02-19T13:18:28.474Z,4033.13
2019-02-19T13:20:32.640Z,3791.25
2019-02-19T13:21:32.886Z,3881.25
2019-02-19T13:23:37.078Z,855.00
2019-02-19T13:24:37.320Z,905.63
2019-02-19T13:26:41.509Z,1918.13
2019-02-19T13:27:41.760Z,1766.25
2019-02-19T13:29:45.921Z,3200.63
2019-02-19T13:30:46.170Z,3453.75
2019-02-19T13:32:50.359Z,3166.88
2019-02-19T13:33:50.601Z,1957.50
2019-02-19T13:35:54.770Z,1029.38
2019-02-19T13:36:55.016Z,3408.75
2019-02-19T13:38:59.205Z,2250.00
2019-02-19T13:39:59.451Z,1428.75
2019-02-19T13:42:03.653Z,810.00
2019-02-19T13:43:03.904Z,810.00
2019-02-19T13:45:08.090Z,3200.63
2019-02-19T13:46:08.329Z,3133.13
2019-02-19T13:48:05.910Z,3251.25
2019-02-19T13:49:01.688Z,967.50
2019-02-19T13:51:05.863Z,635.63
2019-02-19T13:52:06.097Z,691.88
2019-02-19T13:54:10.289Z,2272.50
2019-02-19T13:55:10.533Z,2238.75
2019-02-19T13:57:14.695Z,3099.38
2019-02-19T13:58:14.940Z,3076.88
2019-02-19T14:00:19.127Z,3183.75
2019-02-19T14:01:19.371Z,3048.75
2019-02-19T14:03:23.558Z,2970.00
2019-02-19T14:04:23.808Z,2998.13
2019-02-19T14:06:27.973Z,2846.25
2019-02-19T14:07:28.234Z,1923.75
2019-02-19T14:09:32.408Z,1153.13
2019-02-19T14:10:32.657Z,1085.63
2019-02-19T14:12:36.856Z,511.88
2019-02-19T14:13:37.113Z,596.25
2019-02-19T14:15:41.380Z,697.50
2019-02-19T14:16:41.659Z,1068.75
2019-02-19T14:18:45.904Z,826.88
2019-02-19T14:19:46.184Z,781.88
2019-02-19T14:21:50.339Z,1012.50
2019-02-19T14:22:50.584Z,995.63
2019-02-19T14:24:54.826Z,883.13
2019-02-19T14:25:55.092Z,630.00
2019-02-19T14:27:48.190Z,888.75
2019-02-19T14:28:48.484Z,866.25
2019-02-19T14:30:52.736Z,798.75
2019-02-19T14:31:53.018Z,826.88
2019-02-19T14:33:57.216Z,832.50
2019-02-19T14:34:57.486Z,736.88
2019-02-19T14:37:01.657Z,506.25
2019-02-19T14:38:01.910Z,483.75
2019-02-19T14:40:10.224Z,466.88
2019-02-19T14:41:06.403Z,466.88
2019-02-19T14:43:11.618Z,410.63
2019-02-19T14:44:11.896Z,393.75
2019-02-19T14:46:16.150Z,393.75
2019-02-19T14:47:16.399Z,416.25
2019-02-19T14:49:20.567Z,613.13
2019-02-19T14:50:20.809Z,523.13
2019-02-19T14:52:25.095Z,703.13
2019-02-19T14:53:25.337Z,742.50
2019-02-19T14:55:29.522Z,714.38
2019-02-19T14:56:29.784Z,478.13
2019-02-19T14:58:33.940Z,506.25
2019-02-19T14:59:34.182Z,433.13
2019-02-19T15:01:38.365Z,348.75
2019-02-19T15:02:38.610Z,343.13
2019-02-19T15:04:42.785Z,331.88
2019-02-19T15:05:43.027Z,348.75
2019-02-19T15:07:36.125Z,382.50
2019-02-19T15:08:36.368Z,388.13
2019-02-19T15:10:40.548Z,691.88
2019-02-19T15:11:40.789Z,725.63
2019-02-19T15:13:44.940Z,973.13
2019-02-19T15:14:45.220Z,1175.63
2019-02-19T15:16:49.396Z,573.75
2019-02-19T15:17:49.637Z,410.63
2019-02-19T15:19:53.859Z,1192.50
2019-02-19T15:20:54.119Z,1186.88
2019-02-19T15:22:58.266Z,343.13
2019-02-19T15:23:58.541Z,326.25
2019-02-19T15:26:02.775Z,275.63
2019-02-19T15:27:03.015Z,275.63
2019-02-19T15:29:07.184Z,911.25
2019-02-19T15:30:07.423Z,832.50
2019-02-19T15:32:11.653Z,663.75
2019-02-19T15:33:11.896Z,360.00
2019-02-19T15:35:16.106Z,950.63
2019-02-19T15:36:16.412Z,905.63
2019-02-19T15:38:09.497Z,663.75
2019-02-19T15:39:09.771Z,360.00
2019-02-19T15:41:13.956Z,331.88
2019-02-19T15:42:14.195Z,776.25
2019-02-19T15:44:18.382Z,776.25
2019-02-19T15:45:18.620Z,787.50
2019-02-19T15:47:22.797Z,725.63
2019-02-19T15:48:23.053Z,703.13
2019-02-19T15:50:27.263Z,686.25
2019-02-19T15:51:27.498Z,658.13
2019-02-19T15:53:31.647Z,466.88
2019-02-19T15:54:31.889Z,376.88
2019-02-19T15:56:36.136Z,180.00
2019-02-19T15:57:36.404Z,163.13
2019-02-19T15:59:40.586Z,151.88
2019-02-19T16:00:40.823Z,146.25
2019-02-19T16:02:44.999Z,140.63
2019-02-19T16:03:45.238Z,213.75
2019-02-19T16:05:49.491Z,146.25
2019-02-19T16:06:49.756Z,135.00
2019-02-19T16:08:53.908Z,241.88
2019-02-19T16:09:54.145Z,191.25
2019-02-19T16:11:58.320Z,135.00
2019-02-19T16:12:58.556Z,118.13
2019-02-19T16:15:02.707Z,123.75
2019-02-19T16:16:02.957Z,129.38
2019-02-19T16:17:56.050Z,135.00
2019-02-19T16:18:56.285Z,123.75
2019-02-19T16:21:00.452Z,135.00
2019-02-19T16:22:00.690Z,123.75
2019-02-19T16:24:04.835Z,118.13
2019-02-19T16:25:05.078Z,112.50
2019-02-19T16:27:09.248Z,95.63
2019-02-19T16:28:09.483Z,78.75
2019-02-19T16:30:13.634Z,56.25
2019-02-19T16:31:13.869Z,56.25
2019-02-19T16:33:18.038Z,56.25
2019-02-19T16:34:18.277Z,50.63
2019-02-19T16:36:22.445Z,45.00
2019-02-19T16:37:22.683Z,33.75
2019-02-19T16:39:26.832Z,22.50
2019-02-19T16:40:27.070Z,22.50
2019-02-19T16:42:31.231Z,16.88
2019-02-19T16:43:31.499Z,16.88
2019-02-19T16:45:35.726Z,11.25
2019-02-19T16:46:36.083Z,11.25
2019-02-19T16:48:40.443Z,5.63
2019-02-19T16:49:40.448Z,5.63
2019-02-19T16:51:44.613Z,5.63
2019-02-19T16:52:44.848Z,5.63
2019-02-19T16:54:48.998Z,0.00
2019-02-19T16:55:49.234Z,0.00
2019-02-19T16:57:42.329Z,0.00
2019-02-19T16:58:42.571Z,0.00
2019-02-19T17:00:46.718Z,0.00
2019-02-19T17:01:46.962Z,0.00
2019-02-19T17:03:51.139Z,0.00
2019-02-19T17:04:51.375Z,0.00
2019-02-19T17:06:55.545Z,0.00
2019-02-19T17:07:55.784Z,0.00
2019-02-19T17:09:59.932Z,0.00
2019-02-19T17:11:00.179Z,0.00
2019-02-19T17:13:04.344Z,0.00
2019-02-19T17:14:04.584Z,0.00
2019-02-19T17:16:08.736Z,0.00
2019-02-19T17:17:08.973Z,0.00
2019-02-19T17:19:13.148Z,0.00
2019-02-19T17:20:26.206Z,0.00
2019-02-19T17:22:17.559Z,0.00
2019-02-19T17:23:17.800Z,0.00
2019-02-19T17:25:21.951Z,0.00
2019-02-19T17:26:22.185Z,0.00
2019-02-19T17:28:26.352Z,0.00
2019-02-19T17:29:26.594Z,0.00
2019-02-19T17:31:30.738Z,0.00
2019-02-19T17:32:30.976Z,0.00
2019-02-19T17:34:35.147Z,0.00
2019-02-19T17:35:35.384Z,0.00
2019-02-19T17:37:28.464Z,0.00
2019-02-19T17:38:28.700Z,0.00
2019-02-19T17:40:32.903Z,0.00
2019-02-19T17:41:33.146Z,0.00
2019-02-19T17:43:37.313Z,0.00
2019-02-19T17:44:37.548Z,0.00
2019-02-19T17:46:41.695Z,0.00
2019-02-19T17:47:41.935Z,0.00
2019-02-19T17:49:46.103Z,0.00
2019-02-19T17:50:46.343Z,0.00
2019-02-19T17:52:50.509Z,0.00
2019-02-19T17:53:50.748Z,0.00
2019-02-19T17:55:54.921Z,0.00
2019-02-19T17:56:55.152Z,0.00
2019-02-19T17:58:59.314Z,0.00
2019-02-19T17:59:59.574Z,0.00
2019-02-19T18:02:03.716Z,0.00
2019-02-19T18:03:04.005Z,0.00
2019-02-19T18:05:08.180Z,0.00
2019-02-19T18:06:08.447Z,0.00
2019-02-19T18:08:01.610Z,0.00
2019-02-19T18:09:01.923Z,0.00
2019-02-19T18:11:06.174Z,0.00
2019-02-19T18:12:06.550Z,0.00
2019-02-19T18:14:10.859Z,0.00
2019-02-19T18:15:11.178Z,0.00
2019-02-19T18:17:15.340Z,0.00
2019-02-19T18:18:15.578Z,0.00
2019-02-19T18:20:19.735Z,0.00
2019-02-19T18:21:20.015Z,0.00
2019-02-19T18:23:24.240Z,0.00
2019-02-19T18:24:24.470Z,0.00
2019-02-19T18:26:28.626Z,0.00
2019-02-19T18:27:28.852Z,0.00
2019-02-19T18:29:33.022Z,0.00
2019-02-19T18:30:33.280Z,0.00
2019-02-19T18:32:37.446Z,0.00
2019-02-19T18:33:37.711Z,0.00
2019-02-19T18:35:41.903Z,0.00
2019-02-19T18:36:42.131Z,0.00
2019-02-19T18:38:46.287Z,0.00
2019-02-19T18:39:46.524Z,0.00
2019-02-19T18:41:50.670Z,0.00
2019-02-19T18:42:50.983Z,0.00
2019-02-19T18:44:56.814Z,0.00
2019-02-19T18:45:55.495Z,0.00
2019-02-19T18:47:48.568Z,0.00
2019-02-19T18:48:48.837Z,0.00
2019-02-19T18:50:58.453Z,0.00
2019-02-19T18:51:53.395Z,0.00
2019-02-19T18:53:57.611Z,0.00
2019-02-19T18:54:57.844Z,0.00
2019-02-19T18:57:02.010Z,0.00
2019-02-19T18:58:02.314Z,0.00
2019-02-19T19:00:06.481Z,0.00
2019-02-19T19:01:08.559Z,0.00
2019-02-19T19:03:10.981Z,0.00
2019-02-19T19:04:11.332Z,0.00
2019-02-19T19:06:15.576Z,0.00
2019-02-19T19:07:16.012Z,0.00
2019-02-19T19:09:20.035Z,0.00
2019-02-19T19:10:20.407Z,0.00
2019-02-19T19:12:24.769Z,0.00
2019-02-19T19:13:24.938Z,0.00
2019-02-19T19:15:29.234Z,0.00
2019-02-19T19:16:29.543Z,0.00
2019-02-19T19:18:33.771Z,0.00
2019-02-19T19:19:34.193Z,0.00
2019-02-19T19:21:38.533Z,0.00
2019-02-19T19:22:38.694Z,0.00
2019-02-19T19:24:42.862Z,0.00
2019-02-19T19:25:43.099Z,0.00
2019-02-19T19:27:36.193Z,0.00
2019-02-19T19:28:36.438Z,0.00
2019-02-19T19:30:40.605Z,0.00
2019-02-19T19:31:40.845Z,0.00
2019-02-19T19:33:44.998Z,0.00
2019-02-19T19:34:45.228Z,0.00
2019-02-19T19:36:49.391Z,0.00
2019-02-19T19:37:49.631Z,0.00
2019-02-19T19:39:53.778Z,0.00
2019-02-19T19:40:54.020Z,0.00
2019-02-19T19:42:58.182Z,0.00